Terminal Aerodrome Forecast
Issued by NWS

Home | Current Version | Previous Version | Graphics & Text | Print | Product List | Glossary On
Versions: 1 2 3 4 5 6 7 8 9 10 11 12 13 14 15 16
000
FTUS43 KGRB 190520
TAFRHI
TAF
KRHI 190520Z 1906/2006 27007KT P6SM BKN250
     FM191600 25010G18KT P6SM SCT250
     FM192200 21006KT P6SM SKC
     FM200300 21006KT P6SM SKC WS013/23035KT=

USA.gov is the U.S. government's official web portal to all federal, state and local government web resources and services.